Airfield :
LOGIN :

Register | Disclaimer

   EN    FR    IT 

 










Legend :    VFR   Marginal VFR   IFR   Intensive IFR   Very Intensive IFR
Visi :
Ceiling :
>= 8 km
>= 3000ft
5 to 8 km
1000 to 3000 ft
1500m to 5 km
500 to 1000 ft
800 to 1500m
200 to 500 ft
< 800m
< 200 ft
Symbols :   Thunderstorms  Fog  Heavy snow  Heavy precipitations  Wind > 20 kt
SIGMETs :     Misc.  Thunderstorms  Icing  Turbulence  Mountain Waves  Volcanic Ashes






- Airport Elevation : 1363 ft


ETIC - Grafenwohr Army Air Field

CURRENT METAR :
  • 190956Z 18006KT 9999 SCT030 SCT110 00/M03 A2998 RMK AO2A SLPNO ALSTG ESTMD $

EXPIRED METARs :
  • 190856Z 17005KT 9999 OVC029 00/M03 A3001 RMK AO2A SLPNO ALSTG ESTMD 57017 $

TAF TAF ETIC
Valid from the 19 at 10:00 until the 20 at 16:00 UTC


191007Z 1910/2016 21009KT 9999 SCT015 BKN030 650307 510152 QNH3000INS
BECMG 1911/1912 22009KT 6000 -SN BKN015 OVC030 650158 540152 QNH2989INS
TEMPO 1912/1916 24010G15KT 0800 SN BKN010 OVC015 650109
BECMG 1917/1918 23008KT 8000 -RASN BKN015 OVC020 620159 540159 QNH2986INS
BECMG 1921/1922 25006KT 9999 NSW BKN015 OVC020 600158 510152 QNH2990INS
BECMG 1923/1924 25006KT 9999 SCT050 510152 QNH2988INS
BECMG 2002/2003 23005KT 9999 FEW015 520155 QNH2985INS
BECMG 2012/2013 18006KT 9999 SCT015 BKN050 QNH2979INS TX01/1912Z TNM02/2003Z



MET'MAP, your aeronautical weather chart ! - Copyright ORBIFLY December 2007 - Disclaimer

ORBIFLY MET'MAP TEAM :

Programming & Development : Alexandra Zaïnal
Concept & original design : Baudouin d'Aumeries
Assistance for programming : Marc-Olivier Méhu
Technical & hardware support : Manuel Goepfert

Contact : metmap@orbifly.com




SOURCES & CREDITS :

   NOAA